createdAt,value
2024-02-03T00:02:35.779Z,66
2024-02-03T00:12:45.748Z,66
2024-02-03T00:22:55.593Z,66
2024-02-03T00:32:56.570Z,66
2024-02-03T00:43:05.918Z,66
2024-02-03T00:53:15.753Z,67
2024-02-03T01:03:27.828Z,67
2024-02-03T01:13:28.044Z,67
2024-02-03T01:23:30.053Z,67
2024-02-03T01:33:41.117Z,68
2024-02-03T01:43:42.448Z,65
2024-02-03T01:53:43.378Z,67
2024-02-03T02:03:44.087Z,68
2024-02-03T02:13:45.678Z,68
2024-02-03T02:23:48.477Z,68
2024-02-03T02:33:50.766Z,69
2024-02-03T02:44:00.609Z,69
2024-02-03T02:54:10.508Z,69
2024-02-03T03:04:16.080Z,69
2024-02-03T03:14:23.612Z,69
2024-02-03T03:24:24.497Z,69
2024-02-03T03:34:34.614Z,69
2024-02-03T03:44:35.501Z,69
2024-02-03T03:54:37.049Z,70
2024-02-03T04:04:47.020Z,70
2024-02-03T04:15:00.011Z,70
2024-02-03T04:25:04.425Z,70
2024-02-03T04:35:05.190Z,70
2024-02-03T04:45:06.224Z,71
2024-02-03T04:55:08.933Z,71
2024-02-03T05:05:12.122Z,71
2024-02-03T05:15:12.228Z,71
2024-02-03T05:25:15.322Z,71
2024-02-03T05:35:14.979Z,71
2024-02-03T05:45:27.762Z,71
2024-02-03T05:55:27.668Z,71
2024-02-03T06:05:44.475Z,70
2024-02-03T06:15:46.275Z,70
2024-02-03T06:25:45.663Z,70
2024-02-03T06:35:55.898Z,69
2024-02-03T06:46:05.620Z,67
2024-02-03T06:56:15.351Z,69
2024-02-03T07:06:25.217Z,69
2024-02-03T07:16:25.862Z,68
2024-02-03T07:26:26.817Z,68
2024-02-03T07:36:36.819Z,68
2024-02-03T07:46:36.679Z,69
2024-02-03T07:56:46.562Z,68
2024-02-03T08:06:56.476Z,66
2024-02-03T08:17:05.963Z,65
2024-02-03T08:27:15.796Z,62
2024-02-03T08:37:25.715Z,61
2024-02-03T08:47:35.572Z,60
2024-02-03T08:57:45.458Z,58
2024-02-03T09:07:55.357Z,58
2024-02-03T09:17:56.492Z,57
2024-02-03T09:37:59.581Z,55
2024-02-03T09:48:07.318Z,54
2024-02-03T09:58:09.096Z,53
2024-02-03T10:08:09.048Z,52
2024-02-03T10:18:19.040Z,51
2024-02-03T10:28:28.918Z,51
2024-02-03T10:38:39.825Z,50
2024-02-03T10:48:40.628Z,49
2024-02-03T10:58:43.286Z,49
2024-02-03T11:08:53.790Z,47
2024-02-03T11:19:00.940Z,46
2024-02-03T11:29:00.528Z,45
2024-02-03T11:39:10.245Z,45
2024-02-03T11:49:11.354Z,45
2024-02-03T11:59:14.682Z,44
2024-02-03T12:09:18.477Z,45
2024-02-03T12:19:19.619Z,45
2024-02-03T12:29:21.936Z,45
2024-02-03T12:39:30.885Z,51
2024-02-03T12:49:30.844Z,52
2024-02-03T12:59:45.737Z,52
2024-02-03T13:09:52.497Z,50
2024-02-03T13:19:51.024Z,49
2024-02-03T13:29:58.695Z,49
2024-02-03T13:40:03.727Z,48
2024-02-03T13:50:06.283Z,48
2024-02-03T14:00:06.188Z,47
2024-02-03T14:10:06.299Z,46
2024-02-03T14:20:18.447Z,45
2024-02-03T14:30:19.258Z,45
2024-02-03T14:40:19.281Z,45
2024-02-03T14:50:19.371Z,45
2024-02-03T15:00:30.168Z,45
2024-02-03T15:10:30.036Z,46
2024-02-03T15:20:41.068Z,50
2024-02-03T15:30:40.927Z,52
2024-02-03T15:40:44.081Z,53
2024-02-03T15:50:44.788Z,54
2024-02-03T16:00:54.649Z,56
2024-02-03T16:11:06.687Z,57
2024-02-03T16:21:11.587Z,57
2024-02-03T16:31:10.570Z,58
2024-02-03T16:41:15.242Z,59
2024-02-03T16:51:20.910Z,60
2024-02-03T17:01:26.717Z,61
2024-02-03T17:11:29.315Z,58
2024-02-03T17:21:39.210Z,58
2024-02-03T17:31:49.046Z,60
2024-02-03T17:41:59.054Z,60
2024-02-03T17:52:02.440Z,60
2024-02-03T18:02:03.564Z,60
2024-02-03T18:12:13.537Z,60
2024-02-03T18:22:15.358Z,60
2024-02-03T18:32:25.246Z,60
2024-02-03T18:42:26.214Z,60
2024-02-03T18:52:26.473Z,61
2024-02-03T19:02:37.512Z,60
2024-02-03T19:22:40.236Z,61
2024-02-03T19:42:44.132Z,62
2024-02-03T19:52:47.837Z,62
2024-02-03T20:11:24.453Z,63
2024-02-03T20:31:26.986Z,63
2024-02-03T20:51:29.316Z,64
2024-02-03T21:01:31.262Z,65
2024-02-03T21:11:41.177Z,65
2024-02-03T21:21:51.165Z,66
2024-02-03T21:32:01.778Z,66
2024-02-03T21:42:06.401Z,66
2024-02-03T21:52:16.296Z,67
2024-02-03T22:02:25.289Z,67
2024-02-03T22:12:35.368Z,67
2024-02-03T22:22:36.572Z,68
2024-02-03T22:32:36.340Z,68
2024-02-03T22:42:42.142Z,68
2024-02-03T22:52:42.196Z,68
2024-02-03T23:02:52.054Z,69
2024-02-03T23:12:52.505Z,70
2024-02-03T23:22:52.606Z,70
2024-02-03T23:32:54.363Z,70
2024-02-03T23:42:54.191Z,70
2024-02-03T23:53:03.883Z,70
